Time;durP1;ratioP1;P1;durP2;ratioP2;P2;SDS_P1;SDS_P2;PMS_P1;PMS_P2;Temp;Humidity;BMP_temperature;BMP_pressure;BME280_temperature;BME280_humidity;BME280_pressure;Samples;Min_cycle;Max_cycle;Signal;HPM_P1;HPM_P2
2023/09/06 00:01:16;;;;;;;5.13;4.22;;;20.70;64.00;;;;;;4991756;28;20026;-55
2023/09/06 00:03:42;;;;;;;5.03;3.40;;;20.60;64.00;;;;;;4994912;28;20085;-55
2023/09/06 00:06:08;;;;;;;5.15;3.63;;;20.60;64.00;;;;;;4995136;28;20386;-55
2023/09/06 00:08:33;;;;;;;5.28;3.60;;;20.60;64.20;;;;;;4994910;28;20026;-55
2023/09/06 00:11:05;;;;;;;5.93;3.78;;;20.60;64.30;;;;;;4994814;28;20027;-55
2023/09/06 00:13:32;;;;;;;6.07;4.05;;;20.60;64.30;;;;;;4993721;28;20030;-55
2023/09/06 00:15:59;;;;;;;5.82;3.50;;;20.60;64.30;;;;;;4995045;28;20030;-55
2023/09/06 00:18:24;;;;;;;5.28;3.83;;;20.60;64.40;;;;;;4993885;28;20355;-55
2023/09/06 00:20:50;;;;;;;4.95;3.75;;;20.60;64.30;;;;;;4994706;28;20026;-55
2023/09/06 00:23:17;;;;;;;7.05;3.70;;;20.50;64.20;;;;;;4994698;28;20065;-56
2023/09/06 00:25:43;;;;;;;9.48;4.10;;;20.50;64.30;;;;;;4994730;28;20050;-54
2023/09/06 00:28:09;;;;;;;4.45;3.55;;;20.50;64.10;;;;;;4994667;28;20162;-54
2023/09/06 00:30:35;;;;;;;6.03;4.07;;;20.50;64.10;;;;;;4994748;28;20109;-55
2023/09/06 00:33:05;;;;;;;5.00;3.88;;;20.50;63.90;;;;;;4994627;28;20117;-55
2023/09/06 00:35:32;;;;;;;5.38;4.05;;;20.50;64.10;;;;;;4994723;28;20549;-55
2023/09/06 00:38:00;;;;;;;4.53;3.53;;;20.50;63.90;;;;;;4994769;28;20034;-55
2023/09/06 00:40:26;;;;;;;5.25;3.85;;;20.50;63.80;;;;;;4994468;28;20049;-55
2023/09/06 00:42:59;;;;;;;4.43;3.55;;;20.50;64.00;;;;;;4994447;28;20031;-56
2023/09/06 00:45:30;;;;;;;6.07;3.53;;;20.50;63.90;;;;;;4994465;28;20038;-55
2023/09/06 00:47:57;;;;;;;;;;;20.50;63.70;;;;;;4994720;28;20406;-52
2023/09/06 00:50:23;;;;;;;5.20;3.90;;;20.40;63.90;;;;;;4994476;28;19909;-55
2023/09/06 00:52:51;;;;;;;5.70;4.10;;;20.40;63.90;;;;;;4994205;28;20025;-56
2023/09/06 00:55:17;;;;;;;4.45;3.60;;;20.40;63.20;;;;;;5011419;28;20125;-55
2023/09/06 00:57:43;;;;;;;6.35;3.67;;;20.40;63.20;;;;;;5013925;28;20038;-55
2023/09/06 01:00:17;;;;;;;4.43;3.60;;;20.40;63.60;;;;;;5013825;28;20029;-56
2023/09/06 01:02:44;;;;;;;4.43;3.65;;;20.40;63.00;;;;;;5013977;28;20034;-55
2023/09/06 01:05:10;;;;;;;4.45;3.42;;;20.40;62.90;;;;;;5013670;28;20038;-55
2023/09/06 01:07:38;;;;;;;6.10;3.47;;;20.40;63.00;;;;;;5013447;28;20081;-53
2023/09/06 01:10:04;;;;;;;4.63;3.40;;;20.40;63.00;;;;;;5013734;28;20026;-55
2023/09/06 01:12:30;;;;;;;5.47;3.55;;;20.40;63.70;;;;;;5013295;28;20033;-55
2023/09/06 01:14:56;;;;;;;4.70;3.70;;;20.40;65.00;;;;;;5012582;28;20026;-55
2023/09/06 01:17:26;;;;;;;6.78;3.85;;;20.40;65.50;;;;;;4995767;28;20034;-55
2023/09/06 01:19:56;;;;;;;5.80;4.22;;;20.40;65.70;;;;;;5013366;28;20419;-56
2023/09/06 01:22:34;;;;;;;5.55;3.80;;;20.30;65.90;;;;;;5013690;28;20022;-56
2023/09/06 01:25:00;;;;;;;4.45;3.60;;;20.30;66.20;;;;;;5013068;28;20298;-55
2023/09/06 01:27:26;;;;;;;5.32;3.80;;;20.30;66.60;;;;;;5012476;28;20382;-55
2023/09/06 01:29:52;;;;;;;5.07;3.80;;;20.30;67.40;;;;;;5012854;28;20057;-56
2023/09/06 01:32:17;;;;;;;4.88;3.65;;;20.30;67.50;;;;;;5013081;28;20057;-55
2023/09/06 01:34:43;;;;;;;4.30;3.40;;;20.30;67.90;;;;;;5013212;28;20498;-56
2023/09/06 01:37:08;;;;;;;5.10;4.10;;;20.30;68.20;;;;;;5012944;28;20470;-56
2023/09/06 01:39:34;;;;;;;5.75;4.20;;;20.30;68.40;;;;;;5013016;28;20379;-56
2023/09/06 01:42:00;;;;;;;4.30;3.33;;;20.30;68.60;;;;;;5012203;28;20497;-55
2023/09/06 01:44:26;;;;;;;4.85;3.90;;;20.20;68.40;;;;;;5011340;28;20116;-54
2023/09/06 01:46:52;;;;;;;5.68;3.65;;;20.20;68.10;;;;;;5011459;28;20408;-53
2023/09/06 01:49:18;;;;;;;6.53;4.18;;;20.20;67.90;;;;;;5011051;28;20121;-54
2023/09/06 01:51:43;;;;;;;5.50;4.30;;;20.10;67.90;;;;;;5011418;28;20022;-56
2023/09/06 01:54:11;;;;;;;5.65;4.07;;;20.10;67.90;;;;;;5011052;28;20057;-55
2023/09/06 01:56:37;;;;;;;5.07;3.90;;;20.10;68.00;;;;;;5012035;28;20105;-54
2023/09/06 01:59:03;;;;;;;6.80;4.60;;;20.10;68.20;;;;;;5012446;28;20121;-55
2023/09/06 02:01:30;;;;;;;5.90;4.28;;;20.10;68.60;;;;;;5012761;28;20037;-55
2023/09/06 02:03:56;;;;;;;5.47;4.10;;;20.10;68.80;;;;;;5012675;28;20496;-56
2023/09/06 02:06:21;;;;;;;5.15;3.95;;;20.00;69.00;;;;;;5012483;28;20022;-55
2023/09/06 02:08:49;;;;;;;7.53;4.53;;;20.00;69.20;;;;;;4994623;28;20121;-56
2023/09/06 02:11:14;;;;;;;6.07;4.00;;;20.00;69.50;;;;;;5012683;28;20030;-55
2023/09/06 02:13:40;;;;;;;5.75;4.30;;;20.00;69.50;;;;;;5012244;28;20108;-56
2023/09/06 02:16:06;;;;;;;5.63;4.28;;;19.90;69.60;;;;;;5012503;28;20033;-55
2023/09/06 02:18:32;;;;;;;5.55;4.25;;;19.90;69.70;;;;;;5011312;28;20393;-55
2023/09/06 02:20:58;;;;;;;5.28;4.25;;;19.90;70.00;;;;;;5012135;28;20029;-53
2023/09/06 02:23:24;;;;;;;7.45;4.57;;;19.80;70.00;;;;;;5012403;28;20529;-55
2023/09/06 02:25:49;;;;;;;6.28;4.78;;;19.70;70.20;;;;;;5011860;28;20172;-54
2023/09/06 02:28:17;;;;;;;7.38;4.07;;;19.70;70.40;;;;;;5012097;28;20156;-56
2023/09/06 02:30:43;;;;;;;6.47;4.65;;;19.70;70.60;;;;;;5012652;28;20109;-56
2023/09/06 02:33:14;;;;;;;6.25;4.45;;;19.60;70.80;;;;;;5012086;28;20381;-56
2023/09/06 02:35:40;;;;;;;6.32;4.00;;;19.60;71.00;;;;;;5012152;28;20026;-55
2023/09/06 02:38:10;;;;;;;5.70;4.30;;;19.60;71.10;;;;;;5012005;28;20565;-55
2023/09/06 02:40:37;;;;;;;5.47;4.55;;;19.50;71.20;;;;;;5011981;28;20026;-56
2023/09/06 02:43:04;;;;;;;6.53;4.65;;;19.50;71.40;;;;;;5011839;28;20030;-56
2023/09/06 02:45:36;;;;;;;7.00;4.45;;;19.50;71.40;;;;;;5012161;28;20032;-56
2023/09/06 02:48:06;;;;;;;6.15;4.40;;;19.50;71.30;;;;;;5012217;28;20026;-54
2023/09/06 02:50:34;;;;;;;6.00;4.05;;;19.40;71.40;;;;;;5010636;28;20033;-54
2023/09/06 02:53:03;;;;;;;6.25;4.57;;;19.40;71.70;;;;;;5010627;28;20026;-55
2023/09/06 02:55:29;;;;;;;5.95;4.75;;;19.30;71.60;;;;;;5011226;28;20468;-54
2023/09/06 02:57:56;;;;;;;6.10;4.60;;;19.30;71.50;;;;;;5011502;28;20092;-55
2023/09/06 03:00:25;;;;;;;6.55;4.35;;;19.30;71.70;;;;;;5011898;28;20026;-55
2023/09/06 03:03:05;;;;;;;8.88;4.95;;;19.30;71.60;;;;;;5011634;28;20117;-55
2023/09/06 03:05:32;;;;;;;7.27;4.80;;;19.30;71.90;;;;;;5011524;28;20073;-56
2023/09/06 03:07:57;;;;;;;6.28;4.95;;;19.20;71.50;;;;;;5011327;28;20030;-56
2023/09/06 03:10:23;;;;;;;6.20;4.53;;;19.20;71.40;;;;;;5011455;28;20045;-54
2023/09/06 03:12:54;;;;;;;6.95;4.97;;;19.20;71.60;;;;;;5011567;28;20022;-55
2023/09/06 03:15:22;;;;;;;7.38;4.70;;;19.20;71.70;;;;;;5011400;28;20097;-55
2023/09/06 03:17:49;;;;;;;7.03;4.63;;;19.10;71.60;;;;;;5011108;28;20064;-56
2023/09/06 03:23:02;;;;;;;7.13;4.47;;;19.00;71.50;;;;;;5011457;28;20033;-53
2023/09/06 03:25:28;;;;;;;6.03;4.57;;;19.00;71.40;;;;;;5011729;28;20030;-56
2023/09/06 03:28:01;;;;;;;6.18;5.00;;;19.00;71.50;;;;;;5012008;28;20026;-54
2023/09/06 03:30:33;;;;;;;7.00;5.18;;;18.90;71.50;;;;;;5011444;28;20054;-52
2023/09/06 03:32:59;;;;;;;6.80;4.97;;;18.90;71.60;;;;;;5011633;28;20034;-55
2023/09/06 03:35:25;;;;;;;7.78;4.90;;;18.90;71.60;;;;;;5011337;28;20037;-55
2023/09/06 03:37:51;;;;;;;6.88;4.72;;;18.90;71.60;;;;;;5014163;28;20438;-55
2023/09/06 03:43:16;;;;;;;6.45;4.63;;;18.80;71.80;;;;;;5002111;28;20034;-55
2023/09/06 03:45:51;;;;;;;6.50;5.00;;;18.80;71.90;;;;;;5015283;28;20088;-55
2023/09/06 03:48:19;;;;;;;7.82;4.93;;;18.80;71.90;;;;;;5015190;28;20563;-55
2023/09/06 03:50:46;;;;;;;8.55;5.28;;;18.80;71.90;;;;;;5015136;28;20057;-56
2023/09/06 03:53:13;;;;;;;6.68;5.13;;;18.80;71.90;;;;;;5014761;28;20026;-54
2023/09/06 03:55:41;;;;;;;8.18;5.13;;;18.80;72.10;;;;;;5015243;28;20034;-56
2023/09/06 03:58:07;;;;;;;7.00;5.13;;;18.80;72.20;;;;;;5015163;28;20065;-56
2023/09/06 04:00:33;;;;;;;5.65;4.47;;;18.80;72.40;;;;;;4997048;28;20064;-55
2023/09/06 04:02:59;;;;;;;6.63;5.00;;;18.90;72.40;;;;;;5014642;28;20033;-55
2023/09/06 04:05:26;;;;;;;6.70;4.85;;;18.90;72.40;;;;;;5014669;28;20042;-55
2023/09/06 04:07:55;;;;;;;5.85;4.88;;;18.90;72.40;;;;;;5014723;28;20022;-55
2023/09/06 04:10:25;;;;;;;8.35;5.72;;;18.90;72.40;;;;;;5014941;28;20080;-56
2023/09/06 04:12:53;;;;;;;5.63;4.70;;;19.00;72.50;;;;;;5014735;28;20030;-53
2023/09/06 04:15:22;;;;;;;7.38;5.20;;;19.00;72.50;;;;;;5014594;28;20045;-55
2023/09/06 04:18:10;;;;;;;7.45;5.45;;;19.00;72.60;;;;;;5014433;28;20033;-55
2023/09/06 04:20:36;;;;;;;5.78;4.80;;;19.00;72.40;;;;;;5014647;28;20025;-56
2023/09/06 04:23:12;;;;;;;7.43;5.10;;;19.00;72.30;;;;;;5014256;28;20026;-54
2023/09/06 04:25:41;;;;;;;8.55;7.22;;;19.10;72.40;;;;;;5014197;28;20482;-56
2023/09/06 04:28:15;;;;;;;9.38;5.70;;;19.10;72.50;;;;;;5009772;28;20022;-56
2023/09/06 04:30:42;;;;;;;7.22;5.80;;;19.10;72.70;;;;;;5012333;28;20025;-57
2023/09/06 04:33:14;;;;;;;7.70;5.10;;;19.10;72.70;;;;;;5012659;28;20026;-56
2023/09/06 04:35:42;;;;;;;6.53;5.25;;;19.10;72.50;;;;;;5014396;28;20029;-56
2023/09/06 04:38:16;;;;;;;6.80;4.95;;;19.10;72.50;;;;;;5014203;28;20026;-56
2023/09/06 04:40:46;;;;;;;6.90;4.80;;;19.20;72.60;;;;;;5014239;28;20029;-51
2023/09/06 04:43:13;;;;;;;7.03;5.45;;;19.20;72.60;;;;;;5014078;28;20031;-56
2023/09/06 04:45:39;;;;;;;4.95;4.43;;;19.20;72.50;;;;;;5014151;28;20465;-56
2023/09/06 04:48:08;;;;;;;6.10;5.15;;;19.30;72.40;;;;;;5013413;28;20022;-56
2023/09/06 04:50:39;;;;;;;6.32;5.50;;;19.30;72.30;;;;;;5013494;28;20519;-55
2023/09/06 04:53:05;;;;;;;6.75;5.15;;;19.30;72.20;;;;;;5011797;28;20029;-55
2023/09/06 04:55:35;;;;;;;6.40;5.40;;;19.40;72.00;;;;;;5012181;28;20445;-56
2023/09/06 04:58:09;;;;;;;6.88;5.60;;;19.40;71.90;;;;;;5012252;28;20022;-56
2023/09/06 05:00:43;;;;;;;7.65;5.63;;;19.50;71.80;;;;;;5011408;28;20036;-55
2023/09/06 05:03:12;;;;;;;7.38;5.15;;;19.50;71.70;;;;;;5010655;28;20018;-56
2023/09/06 05:05:39;;;;;;;7.75;5.55;;;19.60;71.80;;;;;;5011747;28;20036;-56
2023/09/06 05:08:05;;;;;;;8.80;6.00;;;19.60;71.90;;;;;;5011867;28;20026;-54
2023/09/06 05:10:31;;;;;;;6.95;5.53;;;19.70;71.80;;;;;;5010091;28;20034;-56
2023/09/06 05:12:57;;;;;;;5.88;4.78;;;19.80;71.70;;;;;;5011552;28;20014;-55
2023/09/06 05:15:23;;;;;;;6.70;5.10;;;19.80;71.50;;;;;;5012820;28;20069;-55
2023/09/06 05:17:48;;;;;;;6.03;5.05;;;19.90;71.60;;;;;;5012248;28;20055;-54
2023/09/06 05:20:33;;;;;;;6.32;4.80;;;19.90;71.20;;;;;;5011454;28;20033;-53
2023/09/06 05:23:13;;;;;;;8.02;5.15;;;20.00;71.20;;;;;;5011732;28;20051;-57
2023/09/06 05:25:39;;;;;;;6.75;5.28;;;20.00;71.10;;;;;;5012213;28;20026;-56
2023/09/06 05:28:10;;;;;;;7.03;4.85;;;20.00;71.00;;;;;;5012042;28;20108;-56
2023/09/06 05:30:43;;;;;;;7.15;4.90;;;20.10;71.00;;;;;;5011363;28;20097;-55
2023/09/06 05:33:09;;;;;;;6.55;4.68;;;20.20;70.50;;;;;;5011031;28;20097;-55
2023/09/06 05:35:36;;;;;;;6.93;5.15;;;20.30;70.20;;;;;;5011380;28;20057;-55
2023/09/06 05:38:03;;;;;;;6.80;4.95;;;20.40;69.90;;;;;;5011902;28;20025;-55
2023/09/06 05:40:30;;;;;;;13.77;5.50;;;20.60;69.50;;;;;;5012834;28;20030;-57
2023/09/06 05:42:57;;;;;;;6.68;4.90;;;20.90;69.20;;;;;;5012900;28;20034;-53
2023/09/06 05:45:22;;;;;;;6.07;4.93;;;21.20;68.50;;;;;;4994742;28;20026;-54
2023/09/06 05:47:49;;;;;;;6.65;4.60;;;21.50;67.80;;;;;;5011887;28;20156;-54
2023/09/06 05:50:15;;;;;;;5.82;4.43;;;21.70;66.90;;;;;;5012544;28;20022;-51
2023/09/06 05:52:41;;;;;;;5.50;4.40;;;21.80;66.10;;;;;;5011453;28;20022;-54
2023/09/06 05:55:08;;;;;;;6.63;4.80;;;21.90;66.10;;;;;;5011709;28;20452;-55
2023/09/06 05:57:34;;;;;;;6.20;4.70;;;21.80;65.90;;;;;;5011988;28;20026;-55
2023/09/06 06:00:01;;;;;;;7.03;4.97;;;21.80;66.20;;;;;;5011779;28;20499;-55
2023/09/06 06:02:29;;;;;;;6.82;4.90;;;21.70;66.30;;;;;;5012413;28;20397;-55
2023/09/06 06:04:56;;;;;;;5.65;4.20;;;21.70;66.70;;;;;;5012231;28;20033;-55
2023/09/06 06:07:21;;;;;;;5.97;4.63;;;21.70;66.80;;;;;;5012586;28;20049;-55
2023/09/06 06:09:48;;;;;;;6.07;4.65;;;21.70;67.00;;;;;;5012426;28;20026;-53
2023/09/06 06:12:14;;;;;;;7.30;4.70;;;21.70;67.20;;;;;;5012254;28;20127;-56
2023/09/06 06:14:42;;;;;;;6.57;4.50;;;21.70;67.00;;;;;;5012259;28;20030;-57
2023/09/06 06:17:11;;;;;;;6.43;4.68;;;21.70;67.00;;;;;;5012188;28;20040;-54
2023/09/06 06:19:36;;;;;;;5.15;4.32;;;21.70;67.10;;;;;;5012417;28;20382;-55
2023/09/06 06:22:03;;;;;;;6.15;4.78;;;21.70;67.30;;;;;;5012165;28;20030;-54
2023/09/06 06:24:30;;;;;;;6.05;4.43;;;21.80;67.20;;;;;;5012190;28;20029;-55
2023/09/06 06:26:56;;;;;;;7.13;5.18;;;21.90;66.80;;;;;;5012276;28;20026;-54
2023/09/06 06:29:22;;;;;;;5.93;4.07;;;21.90;66.50;;;;;;5012034;28;20114;-55
2023/09/06 06:31:48;;;;;;;6.22;4.30;;;21.90;65.70;;;;;;5012311;28;20033;-55
2023/09/06 06:34:14;;;;;;;7.47;4.40;;;22.00;65.60;;;;;;5011875;28;20034;-55
2023/09/06 06:36:40;;;;;;;6.18;4.57;;;22.10;65.70;;;;;;5011815;28;20105;-55
2023/09/06 06:39:07;;;;;;;6.30;4.50;;;22.10;65.40;;;;;;5011778;28;20029;-55
2023/09/06 06:41:32;;;;;;;5.88;5.28;;;22.10;65.40;;;;;;5011924;28;20034;-53
2023/09/06 06:43:58;;;;;;;6.88;4.65;;;22.20;65.50;;;;;;5011392;28;20492;-55
2023/09/06 06:46:29;;;;;;;6.20;4.57;;;22.30;65.40;;;;;;5011458;28;20034;-54
2023/09/06 06:48:55;;;;;;;;;;;22.30;65.40;;;;;;5012029;28;20489;-56
2023/09/06 06:51:21;;;;;;;5.28;3.97;;;22.30;65.60;;;;;;5012139;28;20005;-56
2023/09/06 06:53:47;;;;;;;5.03;4.30;;;22.30;65.60;;;;;;5011426;28;20046;-56
2023/09/06 06:56:12;;;;;;;5.78;4.43;;;22.40;65.50;;;;;;5012031;28;20363;-55
2023/09/06 06:58:38;;;;;;;5.65;4.53;;;22.40;65.30;;;;;;5011286;28;20026;-56
2023/09/06 07:01:04;;;;;;;7.10;4.47;;;22.50;65.50;;;;;;5011706;28;20029;-55
2023/09/06 07:03:29;;;;;;;6.15;4.45;;;22.50;65.40;;;;;;5011796;28;20034;-56
2023/09/06 07:05:58;;;;;;;6.88;3.88;;;22.50;65.40;;;;;;5006650;28;20034;-53
2023/09/06 07:08:26;;;;;;;6.20;4.40;;;22.60;64.80;;;;;;5004992;28;20038;-53
2023/09/06 07:10:51;;;;;;;5.05;3.85;;;22.60;65.10;;;;;;5008811;28;20489;-54
2023/09/06 07:13:17;;;;;;;5.88;4.18;;;22.60;65.00;;;;;;5013182;28;20026;-55
2023/09/06 07:15:43;;;;;;;5.85;4.25;;;22.60;64.80;;;;;;5017111;28;20044;-55
2023/09/06 07:18:09;;;;;;;4.65;3.60;;;22.70;64.70;;;;;;5008764;28;20026;-55
2023/09/06 07:20:35;;;;;;;5.50;4.40;;;22.70;64.60;;;;;;5015758;28;20568;-56
2023/09/06 07:23:01;;;;;;;5.38;4.13;;;22.70;64.40;;;;;;5024245;28;20069;-55
2023/09/06 07:25:31;;;;;;;5.80;4.18;;;22.80;64.00;;;;;;5017840;28;20061;-56
2023/09/06 07:27:59;;;;;;;4.88;4.25;;;22.80;63.80;;;;;;5025100;28;20026;-56
2023/09/06 07:30:27;;;;;;;4.95;4.13;;;22.80;64.00;;;;;;5015530;28;20092;-55
2023/09/06 07:32:53;;;;;;;5.15;4.32;;;22.80;63.80;;;;;;5029953;28;20033;-55
2023/09/06 07:35:18;;;;;;;5.22;4.07;;;22.80;63.50;;;;;;5015838;28;20040;-55
2023/09/06 07:37:45;;;;;;;5.75;4.25;;;22.80;63.60;;;;;;5013854;28;20040;-55
2023/09/06 07:40:11;;;;;;;5.10;3.97;;;22.90;63.30;;;;;;5016107;28;20394;-58
2023/09/06 07:42:39;;;;;;;4.57;3.78;;;22.90;63.10;;;;;;5015038;28;20045;-53
2023/09/06 07:45:07;;;;;;;5.25;4.13;;;22.90;62.70;;;;;;5010727;28;20092;-56
2023/09/06 07:47:33;;;;;;;5.18;3.88;;;22.90;62.50;;;;;;5004572;28;20071;-56
2023/09/06 07:49:58;;;;;;;5.75;3.92;;;22.90;62.70;;;;;;5003003;28;20405;-55
2023/09/06 07:52:24;;;;;;;5.95;4.25;;;22.90;62.80;;;;;;5004174;28;20026;-54
2023/09/06 07:54:49;;;;;;;5.40;4.35;;;22.90;62.70;;;;;;5005169;28;20046;-56
2023/09/06 07:57:15;;;;;;;5.97;4.53;;;22.90;63.20;;;;;;4988135;28;20034;-55
2023/09/06 07:59:41;;;;;;;6.15;4.18;;;22.90;62.40;;;;;;4986028;28;20374;-55
2023/09/06 08:02:06;;;;;;;6.10;4.28;;;22.90;62.50;;;;;;5003602;28;20034;-54
2023/09/06 08:04:32;;;;;;;4.75;3.85;;;22.90;62.50;;;;;;5003796;28;20033;-55
2023/09/06 08:06:58;;;;;;;5.18;3.97;;;22.90;62.80;;;;;;5003819;28;20381;-56
2023/09/06 08:09:24;;;;;;;5.00;3.90;;;22.90;62.10;;;;;;4984419;28;20030;-56
2023/09/06 08:11:50;;;;;;;5.93;3.85;;;22.90;61.90;;;;;;5000432;28;20044;-55
2023/09/06 08:14:15;;;;;;;6.63;4.13;;;22.90;61.70;;;;;;5004394;28;20065;-56
2023/09/06 08:16:41;;;;;;;5.15;4.07;;;22.90;61.60;;;;;;5004110;28;20069;-55
2023/09/06 08:19:07;;;;;;;6.05;4.07;;;22.90;61.70;;;;;;5002475;28;20027;-56
2023/09/06 08:21:34;;;;;;;6.10;3.83;;;22.90;62.00;;;;;;5002463;28;20487;-55
2023/09/06 08:24:02;;;;;;;5.03;3.83;;;22.90;62.00;;;;;;5004009;28;20401;-56
2023/09/06 08:26:28;;;;;;;8.13;4.32;;;22.90;61.90;;;;;;5005408;28;20061;-55
2023/09/06 08:28:54;;;;;;;5.50;4.00;;;22.90;61.90;;;;;;5002901;28;20478;-55
2023/09/06 08:31:20;;;;;;;4.55;3.92;;;22.90;62.00;;;;;;5006414;28;20028;-56
2023/09/06 08:33:46;;;;;;;7.57;5.38;;;23.00;62.00;;;;;;5013795;28;20013;-54
2023/09/06 08:36:12;;;;;;;6.85;5.00;;;23.00;61.80;;;;;;5011806;28;20023;-55
2023/09/06 08:38:39;;;;;;;6.15;4.60;;;23.00;61.20;;;;;;5008222;28;20034;-56
2023/09/06 08:41:07;;;;;;;5.60;4.03;;;23.00;60.90;;;;;;5009647;28;20027;-55
2023/09/06 08:43:42;;;;;;;5.32;3.92;;;23.00;60.90;;;;;;5013873;28;20041;-56
2023/09/06 08:46:30;;;;;;;4.80;3.85;;;23.00;60.70;;;;;;5009746;28;20022;-56
2023/09/06 08:48:58;;;;;;;4.45;3.65;;;23.00;60.70;;;;;;4990385;28;20026;-55
2023/09/06 08:51:24;;;;;;;4.90;3.60;;;23.00;61.00;;;;;;5012206;28;20033;-55
2023/09/06 08:53:51;;;;;;;7.78;4.35;;;23.00;61.30;;;;;;5009960;28;20121;-55
2023/09/06 08:56:17;;;;;;;5.10;3.70;;;23.10;61.60;;;;;;5008627;28;20537;-55
2023/09/06 08:58:43;;;;;;;6.10;3.88;;;23.10;61.80;;;;;;5011221;28;20038;-56
2023/09/06 09:01:10;;;;;;;5.68;4.00;;;23.10;61.50;;;;;;5002578;28;20034;-55
2023/09/06 09:03:35;;;;;;;4.70;3.88;;;23.10;61.70;;;;;;5010084;28;20038;-56
2023/09/06 09:06:06;;;;;;;7.20;4.03;;;23.20;61.20;;;;;;5011580;28;20034;-56
2023/09/06 09:08:33;;;;;;;5.22;4.00;;;23.20;60.90;;;;;;5008378;28;20486;-54
2023/09/06 09:11:18;;;;;;;5.15;3.55;;;23.20;60.70;;;;;;5006912;28;20049;-55
2023/09/06 09:13:45;;;;;;;4.82;3.45;;;23.30;59.70;;;;;;5007414;28;20037;-56
2023/09/06 09:16:13;;;;;;;5.65;3.50;;;23.30;59.00;;;;;;5009923;28;20065;-56
2023/09/06 09:18:43;;;;;;;6.03;3.67;;;23.30;58.10;;;;;;5006305;28;20049;-56
2023/09/06 09:21:10;;;;;;;5.35;3.70;;;23.40;57.60;;;;;;5007213;28;20049;-56
2023/09/06 09:23:47;;;;;;;4.68;3.90;;;23.40;57.10;;;;;;5003458;28;20105;-55
2023/09/06 09:26:13;;;;;;;5.25;4.15;;;23.60;57.60;;;;;;5001526;28;20559;-55
2023/09/06 09:28:41;;;;;;;6.05;4.68;;;23.60;58.40;;;;;;5007200;28;20386;-53
2023/09/06 09:31:11;;;;;;;5.85;4.45;;;23.70;59.10;;;;;;5005670;28;20034;-56
2023/09/06 09:33:37;;;;;;;6.50;4.60;;;23.70;59.40;;;;;;4994283;28;20097;-56
2023/09/06 09:36:05;;;;;;;6.78;4.50;;;23.80;59.80;;;;;;5004930;28;20129;-56
2023/09/06 09:38:30;;;;;;;5.57;4.43;;;23.80;59.90;;;;;;5008966;28;20539;-54
2023/09/06 09:41:07;;;;;;;6.47;4.72;;;24.00;60.00;;;;;;5003561;28;20030;-54
2023/09/06 09:43:34;;;;;;;5.00;4.32;;;24.00;59.90;;;;;;5009738;28;20064;-54
2023/09/06 09:46:01;;;;;;;4.97;4.25;;;24.00;59.90;;;;;;5010372;28;20033;-54
2023/09/06 09:48:32;;;;;;;6.28;4.47;;;24.10;59.90;;;;;;5005770;28;20021;-55
2023/09/06 09:51:04;;;;;;;5.43;4.32;;;24.10;60.00;;;;;;5009648;28;20505;-54
2023/09/06 09:53:31;;;;;;;5.13;4.35;;;24.10;60.20;;;;;;5009823;28;20060;-54
2023/09/06 09:56:04;;;;;;;5.70;4.25;;;24.10;59.70;;;;;;5002979;28;20381;-55
2023/09/06 09:58:35;;;;;;;5.35;4.10;;;24.20;59.30;;;;;;5001968;28;20450;-54
2023/09/06 10:01:05;;;;;;;5.15;3.95;;;24.20;58.90;;;;;;4993245;28;20489;-53
2023/09/06 10:03:33;;;;;;;5.28;3.83;;;24.20;58.50;;;;;;5001738;28;20109;-51
2023/09/06 10:06:01;;;;;;;5.07;4.13;;;24.30;59.10;;;;;;5000904;28;20041;-53
2023/09/06 10:08:32;;;;;;;5.43;3.97;;;24.30;58.30;;;;;;5001810;28;20037;-54
2023/09/06 10:10:57;;;;;;;6.25;4.20;;;24.30;57.90;;;;;;5002649;28;20026;-55
2023/09/06 10:13:26;;;;;;;4.38;3.65;;;24.30;58.00;;;;;;5002973;28;20038;-54
2023/09/06 10:15:54;;;;;;;4.55;3.65;;;24.30;57.80;;;;;;5001610;28;20052;-51
2023/09/06 10:18:20;;;;;;;5.25;3.60;;;24.30;57.80;;;;;;5003791;28;20038;-55
2023/09/06 10:20:46;;;;;;;4.82;3.65;;;24.30;57.70;;;;;;5004183;28;20038;-55
2023/09/06 10:23:12;;;;;;;5.18;3.45;;;24.30;57.60;;;;;;4999677;28;20371;-52
2023/09/06 10:25:47;;;;;;;6.63;3.80;;;24.30;57.50;;;;;;5002176;28;20041;-55
2023/09/06 10:28:14;;;;;;;5.18;3.47;;;24.30;57.50;;;;;;4999416;28;20521;-53
2023/09/06 10:30:46;;;;;;;4.57;3.40;;;24.30;57.40;;;;;;5001731;28;20118;-55
2023/09/06 10:33:36;;;;;;;6.57;3.58;;;24.30;57.30;;;;;;5000288;28;20040;-54
2023/09/06 10:36:08;;;;;;;4.57;3.35;;;24.30;56.90;;;;;;4998064;28;20033;-55
2023/09/06 10:38:58;;;;;;;4.20;3.45;;;24.30;56.00;;;;;;5003647;28;20037;-56
2023/09/06 10:41:26;;;;;;;6.07;3.47;;;24.30;56.00;;;;;;4996678;28;20038;-55
2023/09/06 10:43:58;;;;;;;4.20;3.30;;;24.30;56.30;;;;;;5000753;28;20034;-53
2023/09/06 10:46:26;;;;;;;4.15;3.30;;;24.30;56.30;;;;;;5000638;28;20053;-55
2023/09/06 10:49:11;;;;;;;5.00;3.60;;;24.30;56.50;;;;;;4996392;28;20058;-55
2023/09/06 10:52:03;;;;;;;5.63;3.35;;;24.30;55.90;;;;;;4988781;28;20438;-55
2023/09/06 10:54:53;;;;;;;5.13;3.95;;;24.30;56.00;;;;;;4985476;28;20050;-54
2023/09/06 10:57:19;;;;;;;4.13;3.43;;;24.30;56.20;;;;;;4980428;28;20039;-54
2023/09/06 10:59:55;;;;;;;4.45;3.75;;;24.30;56.30;;;;;;4983941;28;20033;-54
2023/09/06 11:02:21;;;;;;;4.70;3.72;;;24.30;56.40;;;;;;4975779;28;20045;-53
2023/09/06 11:04:47;;;;;;;5.40;3.70;;;24.30;56.20;;;;;;4981705;28;20031;-55
2023/09/06 11:07:13;;;;;;;4.28;3.60;;;24.30;56.50;;;;;;4982501;28;20026;-55
2023/09/06 11:09:43;;;;;;;4.05;3.58;;;24.30;56.30;;;;;;4983459;28;20030;-55
2023/09/06 11:12:13;;;;;;;3.88;3.35;;;24.30;56.30;;;;;;4981144;28;20073;-55
2023/09/06 11:14:40;;;;;;;4.63;3.90;;;24.30;56.30;;;;;;4988504;28;20062;-55
2023/09/06 11:17:06;;;;;;;4.07;3.45;;;24.30;56.40;;;;;;4997531;28;20247;-55
2023/09/06 11:19:36;;;;;;;6.93;3.65;;;24.30;56.40;;;;;;4989545;28;20030;-56
2023/09/06 11:22:10;;;;;;;5.45;3.60;;;24.30;56.30;;;;;;5005755;28;20236;-56
2023/09/06 11:24:36;;;;;;;4.45;3.55;;;24.30;56.00;;;;;;4985721;28;20122;-51
2023/09/06 11:27:24;;;;;;;4.50;3.40;;;24.30;55.60;;;;;;4990099;28;20018;-56
2023/09/06 11:30:10;;;;;;;4.90;3.17;;;24.30;55.50;;;;;;4988941;28;20374;-55
2023/09/06 11:32:39;;;;;;;4.72;3.10;;;24.30;55.30;;;;;;4986315;28;20474;-56
2023/09/06 11:35:08;;;;;;;4.60;3.65;;;24.30;55.90;;;;;;4984957;28;20030;-54
2023/09/06 11:37:37;;;;;;;3.50;3.20;;;24.20;55.60;;;;;;4986930;28;20034;-55
2023/09/06 11:40:15;;;;;;;5.05;3.92;;;24.20;55.80;;;;;;4987593;28;20421;-55
2023/09/06 11:42:44;;;;;;;4.50;3.60;;;24.20;56.10;;;;;;4983101;28;20045;-55
2023/09/06 11:45:14;;;;;;;4.38;3.50;;;24.20;56.00;;;;;;5000620;28;20025;-55
2023/09/06 11:47:42;;;;;;;4.82;3.70;;;24.10;56.20;;;;;;4991451;28;20109;-56
2023/09/06 11:50:11;;;;;;;5.35;3.60;;;24.10;56.40;;;;;;4991641;28;20029;-56
2023/09/06 11:52:39;;;;;;;5.63;3.72;;;24.10;56.60;;;;;;4974517;28;20021;-56
2023/09/06 11:55:08;;;;;;;5.38;3.80;;;24.00;57.20;;;;;;4990102;28;20050;-54
2023/09/06 11:57:37;;;;;;;7.28;5.18;;;24.00;57.20;;;;;;4990970;28;20089;-55
2023/09/06 12:00:17;;;;;;;5.70;3.75;;;24.00;57.20;;;;;;4994924;28;20046;-55
2023/09/06 12:02:47;;;;;;;4.68;4.03;;;24.00;57.40;;;;;;4982253;28;20376;-56
2023/09/06 12:05:14;;;;;;;4.30;3.50;;;23.90;57.20;;;;;;4994315;28;20479;-55
2023/09/06 12:07:41;;;;;;;5.25;3.60;;;23.80;57.30;;;;;;5000972;28;20403;-56
2023/09/06 12:10:08;;;;;;;4.80;3.70;;;23.80;56.90;;;;;;4994952;28;20026;-56
2023/09/06 12:12:40;;;;;;;5.45;4.13;;;23.70;56.80;;;;;;4979600;28;20065;-54
2023/09/06 12:15:14;;;;;;;4.70;3.60;;;23.70;56.60;;;;;;4994356;28;20053;-54
2023/09/06 12:17:42;;;;;;;5.70;3.60;;;23.70;56.70;;;;;;4994114;28;20035;-54
2023/09/06 12:20:14;;;;;;;4.55;3.28;;;23.70;56.90;;;;;;4994064;28;20030;-56
2023/09/06 12:22:40;;;;;;;4.43;3.50;;;23.60;56.80;;;;;;4996270;28;20486;-55
2023/09/06 12:25:06;;;;;;;7.78;3.75;;;23.60;56.80;;;;;;4996568;28;20033;-55
2023/09/06 12:27:32;;;;;;;5.40;3.58;;;23.60;56.90;;;;;;4993378;28;20590;-56
2023/09/06 12:29:57;;;;;;;4.20;3.40;;;23.60;56.90;;;;;;4992171;28;20121;-55
2023/09/06 12:32:23;;;;;;;5.70;3.88;;;23.60;56.90;;;;;;4989423;28;20034;-55
2023/09/06 12:34:49;;;;;;;5.75;3.90;;;23.50;57.00;;;;;;4994312;28;20041;-56
2023/09/06 12:37:17;;;;;;;5.53;3.90;;;23.50;57.10;;;;;;4991343;28;20402;-55
2023/09/06 12:39:43;;;;;;;4.28;3.38;;;23.50;57.40;;;;;;4988013;28;20037;-56
2023/09/06 12:42:09;;;;;;;6.00;3.97;;;23.60;57.30;;;;;;4995065;28;20026;-55
2023/09/06 12:44:34;;;;;;;5.78;4.13;;;23.60;57.50;;;;;;4991138;28;20034;-55
2023/09/06 12:47:00;;;;;;;10.88;4.20;;;23.60;57.40;;;;;;4992301;28;20034;-55
2023/09/06 12:49:26;;;;;;;6.35;4.10;;;23.60;57.60;;;;;;4988995;28;20023;-54
2023/09/06 12:51:51;;;;;;;9.00;4.43;;;23.60;57.50;;;;;;4992693;28;20062;-55
2023/09/06 12:54:17;;;;;;;4.85;3.90;;;23.60;57.50;;;;;;4992694;28;20593;-55
2023/09/06 12:56:43;;;;;;;5.88;3.78;;;23.60;57.70;;;;;;4993407;28;20117;-56
2023/09/06 12:59:08;;;;;;;5.00;3.63;;;23.60;57.60;;;;;;4991066;28;20030;-56